sensor_id;sensor_type;location;lat;lon;timestamp;P1;durP1;ratioP1;P2;durP2;ratioP2
13471;SDS011;6808;49.444;11.034;2023-09-07T00:00:00;1.20;;;1.10;;
13471;SDS011;6808;49.444;11.034;2023-09-07T00:02:26;1.93;;;1.30;;
13471;SDS011;6808;49.444;11.034;2023-09-07T00:04:51;1.63;;;1.53;;
13471;SDS011;6808;49.444;11.034;2023-09-07T00:07:17;1.27;;;0.90;;
13471;SDS011;6808;49.444;11.034;2023-09-07T00:09:42;1.83;;;1.73;;
13471;SDS011;6808;49.444;11.034;2023-09-07T00:12:08;1.90;;;1.80;;
13471;SDS011;6808;49.444;11.034;2023-09-07T00:14:33;1.30;;;1.20;;
13471;SDS011;6808;49.444;11.034;2023-09-07T00:16:59;1.13;;;1.13;;
13471;SDS011;6808;49.444;11.034;2023-09-07T00:19:24;0.83;;;0.83;;
13471;SDS011;6808;49.444;11.034;2023-09-07T00:21:50;1.53;;;1.10;;
13471;SDS011;6808;49.444;11.034;2023-09-07T00:24:17;1.47;;;1.30;;
13471;SDS011;6808;49.444;11.034;2023-09-07T00:26:43;1.90;;;1.20;;
13471;SDS011;6808;49.444;11.034;2023-09-07T00:29:10;0.93;;;0.93;;
13471;SDS011;6808;49.444;11.034;2023-09-07T00:31:35;0.90;;;0.90;;
13471;SDS011;6808;49.444;11.034;2023-09-07T00:34:01;1.57;;;1.00;;
13471;SDS011;6808;49.444;11.034;2023-09-07T00:36:26;1.50;;;1.40;;
13471;SDS011;6808;49.444;11.034;2023-09-07T00:38:52;1.13;;;1.07;;
13471;SDS011;6808;49.444;11.034;2023-09-07T00:41:17;1.83;;;1.73;;
13471;SDS011;6808;49.444;11.034;2023-09-07T00:43:43;2.27;;;1.20;;
13471;SDS011;6808;49.444;11.034;2023-09-07T00:46:08;4.83;;;2.47;;
13471;SDS011;6808;49.444;11.034;2023-09-07T00:48:34;7.67;;;3.77;;
13471;SDS011;6808;49.444;11.034;2023-09-07T00:51:00;6.53;;;3.20;;
13471;SDS011;6808;49.444;11.034;2023-09-07T00:53:26;2.97;;;2.67;;
13471;SDS011;6808;49.444;11.034;2023-09-07T00:55:53;5.20;;;2.13;;
13471;SDS011;6808;49.444;11.034;2023-09-07T00:58:20;1.63;;;1.03;;
13471;SDS011;6808;49.444;11.034;2023-09-07T01:00:46;1.50;;;1.40;;
13471;SDS011;6808;49.444;11.034;2023-09-07T01:03:12;0.53;;;0.53;;
13471;SDS011;6808;49.444;11.034;2023-09-07T01:05:52;0.60;;;0.60;;
13471;SDS011;6808;49.444;11.034;2023-09-07T01:08:33;0.30;;;0.30;;
13471;SDS011;6808;49.444;11.034;2023-09-07T01:11:16;0.37;;;0.37;;
13471;SDS011;6808;49.444;11.034;2023-09-07T01:13:45;0.30;;;0.30;;
13471;SDS011;6808;49.444;11.034;2023-09-07T01:16:11;0.33;;;0.33;;
13471;SDS011;6808;49.444;11.034;2023-09-07T01:18:38;0.30;;;0.30;;
13471;SDS011;6808;49.444;11.034;2023-09-07T01:21:05;0.50;;;0.50;;
13471;SDS011;6808;49.444;11.034;2023-09-07T01:23:33;0.40;;;0.40;;
13471;SDS011;6808;49.444;11.034;2023-09-07T01:26:03;0.40;;;0.40;;
13471;SDS011;6808;49.444;11.034;2023-09-07T01:28:32;0.23;;;0.23;;
13471;SDS011;6808;49.444;11.034;2023-09-07T01:30:58;0.20;;;0.20;;
13471;SDS011;6808;49.444;11.034;2023-09-07T01:33:23;0.40;;;0.40;;
13471;SDS011;6808;49.444;11.034;2023-09-07T01:35:49;0.30;;;0.30;;
13471;SDS011;6808;49.444;11.034;2023-09-07T01:38:15;0.27;;;0.27;;
13471;SDS011;6808;49.444;11.034;2023-09-07T01:40:40;0.20;;;0.20;;
13471;SDS011;6808;49.444;11.034;2023-09-07T01:43:06;0.40;;;0.40;;
13471;SDS011;6808;49.444;11.034;2023-09-07T01:45:31;0.20;;;0.20;;
13471;SDS011;6808;49.444;11.034;2023-09-07T01:47:58;0.30;;;0.30;;
13471;SDS011;6808;49.444;11.034;2023-09-07T01:50:24;0.40;;;0.40;;
13471;SDS011;6808;49.444;11.034;2023-09-07T01:52:51;0.20;;;0.20;;
13471;SDS011;6808;49.444;11.034;2023-09-07T01:55:16;0.43;;;0.43;;
13471;SDS011;6808;49.444;11.034;2023-09-07T01:57:42;0.20;;;0.20;;
13471;SDS011;6808;49.444;11.034;2023-09-07T02:00:10;0.53;;;0.53;;
13471;SDS011;6808;49.444;11.034;2023-09-07T02:02:36;0.20;;;0.20;;
13471;SDS011;6808;49.444;11.034;2023-09-07T02:05:03;0.20;;;0.20;;
13471;SDS011;6808;49.444;11.034;2023-09-07T02:07:29;0.30;;;0.30;;
13471;SDS011;6808;49.444;11.034;2023-09-07T02:09:54;0.30;;;0.30;;
13471;SDS011;6808;49.444;11.034;2023-09-07T02:12:20;0.30;;;0.30;;
13471;SDS011;6808;49.444;11.034;2023-09-07T02:14:45;0.20;;;0.20;;
13471;SDS011;6808;49.444;11.034;2023-09-07T02:17:11;0.30;;;0.30;;
13471;SDS011;6808;49.444;11.034;2023-09-07T02:19:42;0.20;;;0.20;;
13471;SDS011;6808;49.444;11.034;2023-09-07T02:22:08;0.40;;;0.40;;
13471;SDS011;6808;49.444;11.034;2023-09-07T02:24:34;0.40;;;0.40;;
13471;SDS011;6808;49.444;11.034;2023-09-07T02:26:59;0.20;;;0.20;;
13471;SDS011;6808;49.444;11.034;2023-09-07T02:29:25;0.57;;;0.57;;
13471;SDS011;6808;49.444;11.034;2023-09-07T02:31:51;0.20;;;0.20;;
13471;SDS011;6808;49.444;11.034;2023-09-07T02:34:17;0.20;;;0.20;;
13471;SDS011;6808;49.444;11.034;2023-09-07T02:36:43;0.30;;;0.30;;
13471;SDS011;6808;49.444;11.034;2023-09-07T02:39:08;0.30;;;0.30;;
13471;SDS011;6808;49.444;11.034;2023-09-07T02:41:36;0.20;;;0.20;;
13471;SDS011;6808;49.444;11.034;2023-09-07T02:44:01;0.30;;;0.30;;
13471;SDS011;6808;49.444;11.034;2023-09-07T02:46:27;0.30;;;0.30;;
13471;SDS011;6808;49.444;11.034;2023-09-07T02:48:53;0.30;;;0.30;;
13471;SDS011;6808;49.444;11.034;2023-09-07T02:51:22;0.30;;;0.30;;
13471;SDS011;6808;49.444;11.034;2023-09-07T02:53:47;0.20;;;0.20;;
13471;SDS011;6808;49.444;11.034;2023-09-07T02:56:13;0.30;;;0.30;;
13471;SDS011;6808;49.444;11.034;2023-09-07T02:58:38;0.20;;;0.20;;
13471;SDS011;6808;49.444;11.034;2023-09-07T03:01:07;0.30;;;0.30;;
13471;SDS011;6808;49.444;11.034;2023-09-07T03:03:37;0.30;;;0.30;;
13471;SDS011;6808;49.444;11.034;2023-09-07T03:06:09;0.40;;;0.40;;
13471;SDS011;6808;49.444;11.034;2023-09-07T03:08:36;0.30;;;0.30;;
13471;SDS011;6808;49.444;11.034;2023-09-07T03:11:03;0.27;;;0.27;;
13471;SDS011;6808;49.444;11.034;2023-09-07T03:13:29;0.30;;;0.30;;
13471;SDS011;6808;49.444;11.034;2023-09-07T03:15:55;0.20;;;0.20;;
13471;SDS011;6808;49.444;11.034;2023-09-07T03:18:21;0.27;;;0.27;;
13471;SDS011;6808;49.444;11.034;2023-09-07T03:20:46;0.20;;;0.20;;
13471;SDS011;6808;49.444;11.034;2023-09-07T03:23:12;0.20;;;0.20;;
13471;SDS011;6808;49.444;11.034;2023-09-07T03:25:38;0.30;;;0.30;;
13471;SDS011;6808;49.444;11.034;2023-09-07T03:28:03;0.27;;;0.27;;
13471;SDS011;6808;49.444;11.034;2023-09-07T03:30:29;0.30;;;0.30;;
13471;SDS011;6808;49.444;11.034;2023-09-07T03:32:55;0.30;;;0.30;;
13471;SDS011;6808;49.444;11.034;2023-09-07T03:35:20;0.40;;;0.40;;
13471;SDS011;6808;49.444;11.034;2023-09-07T03:37:46;0.30;;;0.30;;
13471;SDS011;6808;49.444;11.034;2023-09-07T03:40:12;0.30;;;0.30;;
13471;SDS011;6808;49.444;11.034;2023-09-07T03:42:38;0.37;;;0.37;;
13471;SDS011;6808;49.444;11.034;2023-09-07T03:45:04;0.30;;;0.30;;
13471;SDS011;6808;49.444;11.034;2023-09-07T03:47:30;0.30;;;0.30;;
13471;SDS011;6808;49.444;11.034;2023-09-07T03:49:56;0.20;;;0.20;;
13471;SDS011;6808;49.444;11.034;2023-09-07T03:52:22;0.20;;;0.20;;
13471;SDS011;6808;49.444;11.034;2023-09-07T03:54:50;0.20;;;0.20;;
13471;SDS011;6808;49.444;11.034;2023-09-07T03:57:17;0.20;;;0.20;;
13471;SDS011;6808;49.444;11.034;2023-09-07T03:59:44;0.30;;;0.30;;
13471;SDS011;6808;49.444;11.034;2023-09-07T04:02:10;0.50;;;0.50;;
13471;SDS011;6808;49.444;11.034;2023-09-07T04:04:35;0.20;;;0.20;;
13471;SDS011;6808;49.444;11.034;2023-09-07T04:07:01;0.40;;;0.40;;
13471;SDS011;6808;49.444;11.034;2023-09-07T04:09:26;0.30;;;0.30;;
13471;SDS011;6808;49.444;11.034;2023-09-07T04:11:52;0.20;;;0.20;;
13471;SDS011;6808;49.444;11.034;2023-09-07T04:14:17;0.30;;;0.30;;
13471;SDS011;6808;49.444;11.034;2023-09-07T04:16:43;0.30;;;0.30;;
13471;SDS011;6808;49.444;11.034;2023-09-07T04:19:09;0.30;;;0.30;;
13471;SDS011;6808;49.444;11.034;2023-09-07T04:21:35;0.30;;;0.30;;
13471;SDS011;6808;49.444;11.034;2023-09-07T04:24:01;0.20;;;0.20;;
13471;SDS011;6808;49.444;11.034;2023-09-07T04:26:27;0.23;;;0.23;;
13471;SDS011;6808;49.444;11.034;2023-09-07T04:28:52;0.40;;;0.40;;
13471;SDS011;6808;49.444;11.034;2023-09-07T04:31:18;0.20;;;0.20;;
13471;SDS011;6808;49.444;11.034;2023-09-07T04:33:43;0.20;;;0.20;;
13471;SDS011;6808;49.444;11.034;2023-09-07T04:36:13;0.23;;;0.23;;
13471;SDS011;6808;49.444;11.034;2023-09-07T04:38:39;0.30;;;0.30;;
13471;SDS011;6808;49.444;11.034;2023-09-07T04:41:14;0.20;;;0.20;;
13471;SDS011;6808;49.444;11.034;2023-09-07T04:43:41;0.20;;;0.20;;
13471;SDS011;6808;49.444;11.034;2023-09-07T04:46:13;0.30;;;0.30;;
13471;SDS011;6808;49.444;11.034;2023-09-07T04:48:39;0.30;;;0.30;;
13471;SDS011;6808;49.444;11.034;2023-09-07T04:51:06;0.33;;;0.33;;
13471;SDS011;6808;49.444;11.034;2023-09-07T04:53:33;0.30;;;0.30;;
13471;SDS011;6808;49.444;11.034;2023-09-07T04:56:02;0.23;;;0.23;;
13471;SDS011;6808;49.444;11.034;2023-09-07T04:58:28;0.30;;;0.30;;
13471;SDS011;6808;49.444;11.034;2023-09-07T05:00:54;0.27;;;0.27;;
13471;SDS011;6808;49.444;11.034;2023-09-07T05:03:25;0.57;;;0.57;;
13471;SDS011;6808;49.444;11.034;2023-09-07T05:05:52;0.30;;;0.30;;
13471;SDS011;6808;49.444;11.034;2023-09-07T05:08:18;0.20;;;0.20;;
13471;SDS011;6808;49.444;11.034;2023-09-07T05:10:44;0.20;;;0.20;;
13471;SDS011;6808;49.444;11.034;2023-09-07T05:13:09;0.20;;;0.20;;
13471;SDS011;6808;49.444;11.034;2023-09-07T05:15:35;0.40;;;0.40;;
13471;SDS011;6808;49.444;11.034;2023-09-07T05:18:00;0.40;;;0.40;;
13471;SDS011;6808;49.444;11.034;2023-09-07T05:20:26;0.80;;;0.80;;
13471;SDS011;6808;49.444;11.034;2023-09-07T05:22:56;1.30;;;1.23;;
13471;SDS011;6808;49.444;11.034;2023-09-07T05:25:24;0.97;;;0.97;;
13471;SDS011;6808;49.444;11.034;2023-09-07T05:27:49;0.30;;;0.30;;
13471;SDS011;6808;49.444;11.034;2023-09-07T05:30:15;0.20;;;0.20;;
13471;SDS011;6808;49.444;11.034;2023-09-07T05:32:40;0.30;;;0.30;;
13471;SDS011;6808;49.444;11.034;2023-09-07T05:35:06;0.53;;;0.53;;
13471;SDS011;6808;49.444;11.034;2023-09-07T05:37:32;0.30;;;0.30;;
13471;SDS011;6808;49.444;11.034;2023-09-07T05:39:58;0.50;;;0.50;;
13471;SDS011;6808;49.444;11.034;2023-09-07T05:42:23;1.17;;;1.10;;
13471;SDS011;6808;49.444;11.034;2023-09-07T05:44:51;1.80;;;1.63;;
13471;SDS011;6808;49.444;11.034;2023-09-07T05:47:16;1.07;;;1.07;;
13471;SDS011;6808;49.444;11.034;2023-09-07T05:49:42;0.60;;;0.60;;
13471;SDS011;6808;49.444;11.034;2023-09-07T05:52:08;0.40;;;0.40;;
13471;SDS011;6808;49.444;11.034;2023-09-07T05:54:33;0.40;;;0.40;;
13471;SDS011;6808;49.444;11.034;2023-09-07T05:57:00;0.30;;;0.30;;
13471;SDS011;6808;49.444;11.034;2023-09-07T05:59:25;0.40;;;0.40;;
13471;SDS011;6808;49.444;11.034;2023-09-07T06:01:51;0.37;;;0.37;;
13471;SDS011;6808;49.444;11.034;2023-09-07T06:04:17;0.40;;;0.40;;
13471;SDS011;6808;49.444;11.034;2023-09-07T06:06:42;0.30;;;0.30;;
13471;SDS011;6808;49.444;11.034;2023-09-07T06:09:08;0.30;;;0.30;;
13471;SDS011;6808;49.444;11.034;2023-09-07T06:11:33;0.43;;;0.43;;
13471;SDS011;6808;49.444;11.034;2023-09-07T06:13:59;0.30;;;0.30;;
13471;SDS011;6808;49.444;11.034;2023-09-07T06:16:25;0.30;;;0.30;;
13471;SDS011;6808;49.444;11.034;2023-09-07T06:18:50;0.30;;;0.30;;
13471;SDS011;6808;49.444;11.034;2023-09-07T06:21:16;0.20;;;0.20;;
13471;SDS011;6808;49.444;11.034;2023-09-07T06:23:41;0.20;;;0.20;;
13471;SDS011;6808;49.444;11.034;2023-09-07T06:26:08;0.27;;;0.27;;
13471;SDS011;6808;49.444;11.034;2023-09-07T06:28:33;0.20;;;0.20;;
13471;SDS011;6808;49.444;11.034;2023-09-07T06:30:59;0.30;;;0.30;;
13471;SDS011;6808;49.444;11.034;2023-09-07T06:33:24;0.30;;;0.30;;
13471;SDS011;6808;49.444;11.034;2023-09-07T06:35:50;0.30;;;0.30;;
13471;SDS011;6808;49.444;11.034;2023-09-07T06:38:15;0.30;;;0.30;;
13471;SDS011;6808;49.444;11.034;2023-09-07T06:40:41;0.30;;;0.30;;
13471;SDS011;6808;49.444;11.034;2023-09-07T06:43:12;0.30;;;0.30;;
13471;SDS011;6808;49.444;11.034;2023-09-07T06:45:38;0.30;;;0.30;;
13471;SDS011;6808;49.444;11.034;2023-09-07T06:48:04;0.30;;;0.30;;
13471;SDS011;6808;49.444;11.034;2023-09-07T06:50:29;0.30;;;0.30;;
13471;SDS011;6808;49.444;11.034;2023-09-07T06:52:55;0.20;;;0.20;;
13471;SDS011;6808;49.444;11.034;2023-09-07T06:55:20;0.43;;;0.43;;
13471;SDS011;6808;49.444;11.034;2023-09-07T06:57:46;0.30;;;0.30;;
13471;SDS011;6808;49.444;11.034;2023-09-07T07:00:12;0.60;;;0.60;;
13471;SDS011;6808;49.444;11.034;2023-09-07T07:02:38;0.83;;;0.83;;
13471;SDS011;6808;49.444;11.034;2023-09-07T07:05:04;0.80;;;0.80;;
13471;SDS011;6808;49.444;11.034;2023-09-07T07:07:30;0.50;;;0.50;;
13471;SDS011;6808;49.444;11.034;2023-09-07T07:09:55;0.30;;;0.30;;
13471;SDS011;6808;49.444;11.034;2023-09-07T07:12:21;0.30;;;0.30;;
13471;SDS011;6808;49.444;11.034;2023-09-07T07:14:47;0.30;;;0.30;;
13471;SDS011;6808;49.444;11.034;2023-09-07T07:17:12;0.30;;;0.30;;
13471;SDS011;6808;49.444;11.034;2023-09-07T07:19:38;0.57;;;0.57;;
13471;SDS011;6808;49.444;11.034;2023-09-07T07:22:03;0.43;;;0.43;;
13471;SDS011;6808;49.444;11.034;2023-09-07T07:24:29;0.50;;;0.50;;
13471;SDS011;6808;49.444;11.034;2023-09-07T07:26:55;0.63;;;0.60;;
13471;SDS011;6808;49.444;11.034;2023-09-07T07:29:20;0.27;;;0.27;;
13471;SDS011;6808;49.444;11.034;2023-09-07T07:31:46;0.30;;;0.30;;
13471;SDS011;6808;49.444;11.034;2023-09-07T07:34:12;0.30;;;0.30;;
13471;SDS011;6808;49.444;11.034;2023-09-07T07:36:37;0.30;;;0.30;;
13471;SDS011;6808;49.444;11.034;2023-09-07T07:39:03;0.37;;;0.37;;
13471;SDS011;6808;49.444;11.034;2023-09-07T07:41:31;0.50;;;0.50;;
13471;SDS011;6808;49.444;11.034;2023-09-07T07:43:57;0.40;;;0.40;;
13471;SDS011;6808;49.444;11.034;2023-09-07T07:46:22;0.33;;;0.33;;
13471;SDS011;6808;49.444;11.034;2023-09-07T07:48:49;0.87;;;0.87;;
13471;SDS011;6808;49.444;11.034;2023-09-07T07:51:15;0.30;;;0.30;;
13471;SDS011;6808;49.444;11.034;2023-09-07T07:53:40;0.50;;;0.50;;
13471;SDS011;6808;49.444;11.034;2023-09-07T07:56:13;0.30;;;0.30;;
13471;SDS011;6808;49.444;11.034;2023-09-07T07:58:40;0.30;;;0.30;;
13471;SDS011;6808;49.444;11.034;2023-09-07T08:01:13;0.30;;;0.30;;
13471;SDS011;6808;49.444;11.034;2023-09-07T08:03:42;0.40;;;0.40;;
13471;SDS011;6808;49.444;11.034;2023-09-07T08:06:08;0.30;;;0.30;;
13471;SDS011;6808;49.444;11.034;2023-09-07T08:08:35;0.60;;;0.60;;
13471;SDS011;6808;49.444;11.034;2023-09-07T08:11:01;0.50;;;0.50;;
13471;SDS011;6808;49.444;11.034;2023-09-07T08:13:30;0.30;;;0.30;;
13471;SDS011;6808;49.444;11.034;2023-09-07T08:16:00;0.37;;;0.37;;
13471;SDS011;6808;49.444;11.034;2023-09-07T08:18:26;0.30;;;0.30;;
13471;SDS011;6808;49.444;11.034;2023-09-07T08:20:52;0.30;;;0.30;;
13471;SDS011;6808;49.444;11.034;2023-09-07T08:23:19;0.30;;;0.30;;
13471;SDS011;6808;49.444;11.034;2023-09-07T08:25:44;0.40;;;0.40;;
13471;SDS011;6808;49.444;11.034;2023-09-07T08:28:11;0.63;;;0.63;;
13471;SDS011;6808;49.444;11.034;2023-09-07T08:30:37;0.30;;;0.30;;
13471;SDS011;6808;49.444;11.034;2023-09-07T08:33:03;0.50;;;0.50;;
13471;SDS011;6808;49.444;11.034;2023-09-07T08:35:30;0.30;;;0.30;;
13471;SDS011;6808;49.444;11.034;2023-09-07T08:38:00;0.30;;;0.30;;
13471;SDS011;6808;49.444;11.034;2023-09-07T08:40:29;0.30;;;0.30;;
13471;SDS011;6808;49.444;11.034;2023-09-07T08:42:58;0.30;;;0.30;;
13471;SDS011;6808;49.444;11.034;2023-09-07T08:45:27;0.30;;;0.30;;
13471;SDS011;6808;49.444;11.034;2023-09-07T08:47:56;2.43;;;0.57;;
13471;SDS011;6808;49.444;11.034;2023-09-07T08:50:23;0.30;;;0.30;;
13471;SDS011;6808;49.444;11.034;2023-09-07T08:52:50;0.27;;;0.27;;
13471;SDS011;6808;49.444;11.034;2023-09-07T08:55:17;0.53;;;0.53;;
13471;SDS011;6808;49.444;11.034;2023-09-07T08:57:43;0.30;;;0.30;;
13471;SDS011;6808;49.444;11.034;2023-09-07T09:00:08;0.30;;;0.30;;
13471;SDS011;6808;49.444;11.034;2023-09-07T09:02:40;0.30;;;0.30;;
13471;SDS011;6808;49.444;11.034;2023-09-07T09:05:08;0.30;;;0.30;;
13471;SDS011;6808;49.444;11.034;2023-09-07T09:07:35;0.37;;;0.37;;
13471;SDS011;6808;49.444;11.034;2023-09-07T09:10:03;0.33;;;0.33;;
13471;SDS011;6808;49.444;11.034;2023-09-07T09:12:30;0.30;;;0.30;;
13471;SDS011;6808;49.444;11.034;2023-09-07T09:14:55;0.27;;;0.27;;
13471;SDS011;6808;49.444;11.034;2023-09-07T09:17:24;0.30;;;0.30;;
13471;SDS011;6808;49.444;11.034;2023-09-07T09:19:50;0.23;;;0.23;;
13471;SDS011;6808;49.444;11.034;2023-09-07T09:22:15;0.30;;;0.30;;
13471;SDS011;6808;49.444;11.034;2023-09-07T09:24:41;0.30;;;0.30;;
13471;SDS011;6808;49.444;11.034;2023-09-07T09:27:07;0.30;;;0.30;;
13471;SDS011;6808;49.444;11.034;2023-09-07T09:29:33;0.20;;;0.20;;
13471;SDS011;6808;49.444;11.034;2023-09-07T09:32:03;0.30;;;0.30;;
13471;SDS011;6808;49.444;11.034;2023-09-07T09:34:33;0.30;;;0.30;;
13471;SDS011;6808;49.444;11.034;2023-09-07T09:36:59;0.30;;;0.30;;
13471;SDS011;6808;49.444;11.034;2023-09-07T09:39:26;0.20;;;0.20;;
13471;SDS011;6808;49.444;11.034;2023-09-07T09:41:52;0.30;;;0.30;;
13471;SDS011;6808;49.444;11.034;2023-09-07T09:44:17;0.30;;;0.30;;
13471;SDS011;6808;49.444;11.034;2023-09-07T09:46:46;0.30;;;0.30;;
13471;SDS011;6808;49.444;11.034;2023-09-07T09:49:14;0.30;;;0.30;;
13471;SDS011;6808;49.444;11.034;2023-09-07T09:51:42;0.37;;;0.37;;
13471;SDS011;6808;49.444;11.034;2023-09-07T09:54:08;0.30;;;0.30;;
13471;SDS011;6808;49.444;11.034;2023-09-07T09:56:35;0.57;;;0.57;;
13471;SDS011;6808;49.444;11.034;2023-09-07T09:59:00;0.20;;;0.20;;
13471;SDS011;6808;49.444;11.034;2023-09-07T10:01:26;0.20;;;0.20;;
13471;SDS011;6808;49.444;11.034;2023-09-07T10:03:54;0.20;;;0.20;;
13471;SDS011;6808;49.444;11.034;2023-09-07T10:06:25;0.50;;;0.50;;
13471;SDS011;6808;49.444;11.034;2023-09-07T10:09:03;0.30;;;0.30;;
13471;SDS011;6808;49.444;11.034;2023-09-07T10:11:32;0.20;;;0.20;;
13471;SDS011;6808;49.444;11.034;2023-09-07T10:14:00;0.30;;;0.30;;
13471;SDS011;6808;49.444;11.034;2023-09-07T10:16:28;0.20;;;0.20;;
13471;SDS011;6808;49.444;11.034;2023-09-07T10:19:16;0.20;;;0.20;;
13471;SDS011;6808;49.444;11.034;2023-09-07T10:21:49;0.30;;;0.30;;
13471;SDS011;6808;49.444;11.034;2023-09-07T10:24:30;0.30;;;0.30;;
13471;SDS011;6808;49.444;11.034;2023-09-07T10:29:27;0.40;;;0.40;;
13471;SDS011;6808;49.444;11.034;2023-09-07T10:31:54;0.30;;;0.30;;
13471;SDS011;6808;49.444;11.034;2023-09-07T10:34:19;0.30;;;0.30;;
13471;SDS011;6808;49.444;11.034;2023-09-07T10:36:47;0.30;;;0.30;;
13471;SDS011;6808;49.444;11.034;2023-09-07T10:39:13;0.30;;;0.30;;
13471;SDS011;6808;49.444;11.034;2023-09-07T10:41:42;0.27;;;0.27;;
13471;SDS011;6808;49.444;11.034;2023-09-07T10:44:09;0.30;;;0.30;;
13471;SDS011;6808;49.444;11.034;2023-09-07T10:46:38;0.20;;;0.20;;
13471;SDS011;6808;49.444;11.034;2023-09-07T10:49:08;0.20;;;0.20;;
13471;SDS011;6808;49.444;11.034;2023-09-07T10:51:46;0.20;;;0.20;;
13471;SDS011;6808;49.444;11.034;2023-09-07T10:54:16;0.50;;;0.50;;
13471;SDS011;6808;49.444;11.034;2023-09-07T10:56:45;0.20;;;0.20;;
13471;SDS011;6808;49.444;11.034;2023-09-07T10:59:12;0.20;;;0.20;;
13471;SDS011;6808;49.444;11.034;2023-09-07T11:01:38;0.30;;;0.30;;
13471;SDS011;6808;49.444;11.034;2023-09-07T11:04:04;0.20;;;0.20;;
13471;SDS011;6808;49.444;11.034;2023-09-07T11:06:30;0.27;;;0.27;;
13471;SDS011;6808;49.444;11.034;2023-09-07T11:08:58;0.20;;;0.20;;
13471;SDS011;6808;49.444;11.034;2023-09-07T11:11:24;0.20;;;0.20;;
13471;SDS011;6808;49.444;11.034;2023-09-07T11:13:51;0.20;;;0.20;;
13471;SDS011;6808;49.444;11.034;2023-09-07T11:16:16;0.20;;;0.20;;
13471;SDS011;6808;49.444;11.034;2023-09-07T11:18:42;0.30;;;0.30;;
13471;SDS011;6808;49.444;11.034;2023-09-07T11:21:08;0.20;;;0.20;;
13471;SDS011;6808;49.444;11.034;2023-09-07T11:23:35;0.30;;;0.30;;
13471;SDS011;6808;49.444;11.034;2023-09-07T11:26:04;0.30;;;0.30;;
13471;SDS011;6808;49.444;11.034;2023-09-07T11:28:31;0.20;;;0.20;;
13471;SDS011;6808;49.444;11.034;2023-09-07T11:30:58;0.40;;;0.40;;
13471;SDS011;6808;49.444;11.034;2023-09-07T11:33:24;0.20;;;0.20;;
13471;SDS011;6808;49.444;11.034;2023-09-07T11:35:50;0.20;;;0.20;;
13471;SDS011;6808;49.444;11.034;2023-09-07T11:38:17;0.70;;;0.32;;
13471;SDS011;6808;49.444;11.034;2023-09-07T11:40:43;0.30;;;0.30;;
13471;SDS011;6808;49.444;11.034;2023-09-07T11:43:10;0.30;;;0.30;;
13471;SDS011;6808;49.444;11.034;2023-09-07T11:45:37;0.40;;;0.40;;
13471;SDS011;6808;49.444;11.034;2023-09-07T11:48:04;0.28;;;0.28;;
13471;SDS011;6808;49.444;11.034;2023-09-07T11:50:30;0.20;;;0.20;;
13471;SDS011;6808;49.444;11.034;2023-09-07T11:52:56;0.30;;;0.30;;
13471;SDS011;6808;49.444;11.034;2023-09-07T11:55:22;0.20;;;0.20;;
13471;SDS011;6808;49.444;11.034;2023-09-07T11:57:48;0.20;;;0.20;;
13471;SDS011;6808;49.444;11.034;2023-09-07T12:00:14;0.20;;;0.20;;
13471;SDS011;6808;49.444;11.034;2023-09-07T12:02:40;0.25;;;0.25;;
13471;SDS011;6808;49.444;11.034;2023-09-07T12:05:06;0.20;;;0.20;;
13471;SDS011;6808;49.444;11.034;2023-09-07T12:07:34;0.35;;;0.35;;
13471;SDS011;6808;49.444;11.034;2023-09-07T12:10:00;0.25;;;0.25;;
13471;SDS011;6808;49.444;11.034;2023-09-07T12:12:26;0.25;;;0.25;;
13471;SDS011;6808;49.444;11.034;2023-09-07T12:14:51;0.20;;;0.20;;
13471;SDS011;6808;49.444;11.034;2023-09-07T12:17:17;0.30;;;0.30;;
13471;SDS011;6808;49.444;11.034;2023-09-07T12:19:44;0.30;;;0.30;;
13471;SDS011;6808;49.444;11.034;2023-09-07T12:22:11;0.20;;;0.20;;
13471;SDS011;6808;49.444;11.034;2023-09-07T12:24:36;0.20;;;0.20;;
13471;SDS011;6808;49.444;11.034;2023-09-07T12:27:02;0.30;;;0.30;;
13471;SDS011;6808;49.444;11.034;2023-09-07T12:29:28;0.30;;;0.30;;
13471;SDS011;6808;49.444;11.034;2023-09-07T12:31:54;0.40;;;0.40;;
13471;SDS011;6808;49.444;11.034;2023-09-07T12:34:19;0.30;;;0.30;;
13471;SDS011;6808;49.444;11.034;2023-09-07T12:36:45;0.28;;;0.28;;
13471;SDS011;6808;49.444;11.034;2023-09-07T12:39:10;0.22;;;0.22;;
13471;SDS011;6808;49.444;11.034;2023-09-07T12:41:38;0.30;;;0.30;;
13471;SDS011;6808;49.444;11.034;2023-09-07T12:44:03;0.38;;;0.38;;
13471;SDS011;6808;49.444;11.034;2023-09-07T12:46:30;0.20;;;0.20;;
13471;SDS011;6808;49.444;11.034;2023-09-07T12:48:56;0.30;;;0.30;;
13471;SDS011;6808;49.444;11.034;2023-09-07T12:51:22;0.20;;;0.20;;
13471;SDS011;6808;49.444;11.034;2023-09-07T12:53:47;0.20;;;0.20;;
13471;SDS011;6808;49.444;11.034;2023-09-07T12:56:13;0.35;;;0.35;;
13471;SDS011;6808;49.444;11.034;2023-09-07T12:58:40;0.30;;;0.30;;
13471;SDS011;6808;49.444;11.034;2023-09-07T13:01:06;0.20;;;0.20;;
13471;SDS011;6808;49.444;11.034;2023-09-07T13:03:35;0.30;;;0.30;;
13471;SDS011;6808;49.444;11.034;2023-09-07T13:06:01;0.30;;;0.30;;
13471;SDS011;6808;49.444;11.034;2023-09-07T13:08:28;0.25;;;0.25;;
13471;SDS011;6808;49.444;11.034;2023-09-07T13:10:55;0.40;;;0.40;;
13471;SDS011;6808;49.444;11.034;2023-09-07T13:13:22;0.30;;;0.30;;
13471;SDS011;6808;49.444;11.034;2023-09-07T13:15:49;0.30;;;0.30;;
13471;SDS011;6808;49.444;11.034;2023-09-07T13:18:15;0.63;;;0.63;;
13471;SDS011;6808;49.444;11.034;2023-09-07T13:20:41;0.30;;;0.30;;
13471;SDS011;6808;49.444;11.034;2023-09-07T13:23:07;0.30;;;0.30;;
13471;SDS011;6808;49.444;11.034;2023-09-07T13:25:32;0.30;;;0.30;;
13471;SDS011;6808;49.444;11.034;2023-09-07T13:27:58;0.30;;;0.30;;
13471;SDS011;6808;49.444;11.034;2023-09-07T13:30:23;0.30;;;0.30;;
13471;SDS011;6808;49.444;11.034;2023-09-07T13:32:49;0.30;;;0.30;;
13471;SDS011;6808;49.444;11.034;2023-09-07T13:35:15;0.30;;;0.30;;
13471;SDS011;6808;49.444;11.034;2023-09-07T13:37:41;0.22;;;0.22;;
13471;SDS011;6808;49.444;11.034;2023-09-07T13:40:07;0.38;;;0.38;;
13471;SDS011;6808;49.444;11.034;2023-09-07T13:42:33;0.30;;;0.30;;
13471;SDS011;6808;49.444;11.034;2023-09-07T13:44:59;0.28;;;0.28;;
13471;SDS011;6808;49.444;11.034;2023-09-07T13:47:24;0.30;;;0.30;;
13471;SDS011;6808;49.444;11.034;2023-09-07T13:49:50;0.30;;;0.30;;
13471;SDS011;6808;49.444;11.034;2023-09-07T13:52:16;0.30;;;0.30;;
13471;SDS011;6808;49.444;11.034;2023-09-07T13:54:41;0.30;;;0.30;;
13471;SDS011;6808;49.444;11.034;2023-09-07T13:57:07;0.50;;;0.50;;
13471;SDS011;6808;49.444;11.034;2023-09-07T13:59:33;0.30;;;0.30;;
13471;SDS011;6808;49.444;11.034;2023-09-07T14:01:59;0.30;;;0.30;;
13471;SDS011;6808;49.444;11.034;2023-09-07T14:04:26;0.30;;;0.30;;
13471;SDS011;6808;49.444;11.034;2023-09-07T14:06:51;0.30;;;0.30;;
13471;SDS011;6808;49.444;11.034;2023-09-07T14:09:17;0.40;;;0.40;;
13471;SDS011;6808;49.444;11.034;2023-09-07T14:11:43;0.20;;;0.20;;
13471;SDS011;6808;49.444;11.034;2023-09-07T14:14:09;0.20;;;0.20;;
13471;SDS011;6808;49.444;11.034;2023-09-07T14:16:35;0.30;;;0.30;;
13471;SDS011;6808;49.444;11.034;2023-09-07T14:19:01;0.30;;;0.30;;
13471;SDS011;6808;49.444;11.034;2023-09-07T14:21:26;0.30;;;0.30;;
13471;SDS011;6808;49.444;11.034;2023-09-07T14:23:52;0.30;;;0.30;;
13471;SDS011;6808;49.444;11.034;2023-09-07T14:26:18;0.30;;;0.30;;
13471;SDS011;6808;49.444;11.034;2023-09-07T14:28:43;0.30;;;0.30;;
13471;SDS011;6808;49.444;11.034;2023-09-07T14:31:09;0.30;;;0.30;;
13471;SDS011;6808;49.444;11.034;2023-09-07T14:33:35;0.47;;;0.47;;
13471;SDS011;6808;49.444;11.034;2023-09-07T14:36:04;0.30;;;0.30;;
13471;SDS011;6808;49.444;11.034;2023-09-07T14:38:31;0.73;;;0.73;;
13471;SDS011;6808;49.444;11.034;2023-09-07T14:40:59;0.30;;;0.30;;
13471;SDS011;6808;49.444;11.034;2023-09-07T14:43:27;0.30;;;0.30;;
13471;SDS011;6808;49.444;11.034;2023-09-07T14:45:53;0.30;;;0.30;;